Airfield :
LOGIN :

Register | Disclaimer

   EN    FR    IT 

 










Legend :    VFR   Marginal VFR   IFR   Intensive IFR   Very Intensive IFR
Visi :
Ceiling :
>= 8 km
>= 3000ft
5 to 8 km
1000 to 3000 ft
1500m to 5 km
500 to 1000 ft
800 to 1500m
200 to 500 ft
< 800m
< 200 ft
Symbols :   Thunderstorms  Fog  Heavy snow  Heavy precipitations  Wind > 20 kt
SIGMETs :     Misc.  Thunderstorms  Icing  Turbulence  Mountain Waves  Volcanic Ashes






- Airport Elevation : 3 ft
- IATA code : DHR


EHKD - Den Helder De Kooy

CURRENT METAR :
  • 120455Z AUTO 25013KT 220V280 9999 FEW021 SCT028 06/02 Q0999 BLU

EXPIRED METARs :
  • 120436Z AUTO 25014KT 9999 FEW020 SCT025 06/03 Q0999 BLU
  • 120425Z AUTO 26012KT 9999 SCT020 SCT033 06/03 Q0999 WHT
  • 120411Z AUTO 26012KT 9999 FEW021 SCT025 06/03 Q0999 BLU
  • 120403Z AUTO 27012KT 9999 FEW021 SCT026 BKN038 06/03 Q0999 BLU
  • 120355Z AUTO 27009KT 240V300 9999 FEW015CB BKN023 OVC027 06/04 Q0999 WHT
  • 120346Z AUTO 27010KT 240V300 9999 -RA FEW015CB BKN021 BKN026 06/04 Q0999 WHT
  • 120333Z AUTO 25011KT 220V290 9999 FEW015CB BKN019 BKN022 OVC026 06/04 Q0999 WHT
  • 120325Z AUTO 26012KT 240V300 9999 -RA FEW015CB SCT021 BKN025 06/04 Q0999 RERA REDZ WHT
  • 120315Z AUTO 25009KT 230V300 5000 -RA FEW015CB SCT018 BKN027 06/04 Q0999 WHT
  • 120257Z AUTO 26013KT 9999 -RA FEW019 BKN029 BKN036 06/03 Q0999 BLU
  • 120255Z AUTO 26015KT 230V290 9999 -RA FEW017 SCT021 BKN029 06/03 Q0999 WHT
  • 120241Z AUTO 24010KT 210V270 9999 SCT020 SCT044 06/03 Q0999 WHT
  • 120225Z AUTO 25009KT 9999 FEW040 06/03 Q0999 BLU

TAF TAF EHKD
Valid from the 12 at 02:00 until the 12 at 14:00 UTC


120112Z 1202/1214 19008KT 9999 SCT020 BKN030
TEMPO 1202/1206 27012G22KT 3000 SHRA RA FEW008 SCT012 BKN015



MET'MAP, your aeronautical weather chart ! - Copyright ORBIFLY December 2007 - Disclaimer

ORBIFLY MET'MAP TEAM :

Programming & Development : Alexandra Zaïnal
Concept & original design : Baudouin d'Aumeries
Assistance for programming : Marc-Olivier Méhu
Technical & hardware support : Manuel Goepfert

Contact : metmap@orbifly.com




SOURCES & CREDITS :

   NOAA